Aviation Digital Data Service (ADDS)

Output produced by METARs form (1101 UTC 30 April 2017)
found at http://www.aviationweather.gov/adds/metars/
 
LHSM 301015Z 04005KT CAVOK 14/02 Q1019 NOSIG
TAF LHSM 300800Z 3009/3018 07005KT 9999 SCT040
       
LHBC 300845Z 07003KT 9999 BKN030 SCT083 13/06 Q1020
LHBP 301030Z 10005KT 060V130 9999 BKN049 14/03 Q1019 NOSIG
TAF LHBP 300500Z 3006/0106 36005KT CAVOK 
     BECMG 3008/3011 05008KT 
     TEMPO 3010/3013 SCT045 
     BECMG 3011/3014 08013KT 
     BECMG 3019/3021 06007KT
       
LHDC 301015Z 31004KT 9999 SCT033 SCT043 12/04 Q1019 NOSIG
TAF LHDC 300800Z 3009/3018 36005KT 9999 BKN025 
     BECMG 3009/3011 04010KT
       
LHKE 301045Z 08006KT 050V110 CAVOK 13/02 Q1019 NOSIG RMK BLU
TAF LHKE 300815Z 3009/3018 05010KT 9999 FEW040 
     BECMG 3009/3012 CAVOK
       
LHPA 301015Z 04006KT 310V100 9999 SCT047 14/02 Q1019 NOSIG RMK BLU
TAF LHPA 300515Z 3006/0106 VRB03KT CAVOK 
     BECMG 3007/3010 05008KT 
     BECMG 3012/3015 10008KT
       
LHPP 301015Z 09006KT 9999 BKN036 13/05 Q1019
TAF LHPP 300800Z 3009/3018 08008KT 9999 SCT040
       
LHPR 301015Z 07004KT 350V160 9999 FEW046 15/04 Q1019 RMK BLU
TAF LHPR 300800Z 3009/3018 VRB03KT CAVOK
       
LHSM 301015Z 04005KT CAVOK 14/02 Q1019 NOSIG
TAF LHSM 300800Z 3009/3018 07005KT 9999 SCT040
       
LHSN 301045Z 03006KT 350V070 9999 BKN040 14/04 Q1019 NOSIG RMK BLU
TAF LHSN 300815Z 3009/3018 04010KT 9999 SCT040 
     BECMG 3009/3012 CAVOK
       
LHUD 301015Z 06007KT 9999 BKN023 14/07 Q1019
LHDC 301015Z 31004KT 9999 SCT033 SCT043 12/04 Q1019 NOSIG
TAF LHDC 300800Z 3009/3018 36005KT 9999 BKN025 
     BECMG 3009/3011 04010KT
       
LHBP 301030Z 10005KT 060V130 9999 BKN049 14/03 Q1019 NOSIG
TAF LHBP 300500Z 3006/0106 36005KT CAVOK 
     BECMG 3008/3011 05008KT 
     TEMPO 3010/3013 SCT045 
     BECMG 3011/3014 08013KT 
     BECMG 3019/3021 06007KT
       
LHKE 301045Z 08006KT 050V110 CAVOK 13/02 Q1019 NOSIG RMK BLU
TAF LHKE 300815Z 3009/3018 05010KT 9999 FEW040 
     BECMG 3009/3012 CAVOK
       
LHPA 301015Z 04006KT 310V100 9999 SCT047 14/02 Q1019 NOSIG RMK BLU
TAF LHPA 300515Z 3006/0106 VRB03KT CAVOK 
     BECMG 3007/3010 05008KT 
     BECMG 3012/3015 10008KT
       
LHSN 301045Z 03006KT 350V070 9999 BKN040 14/04 Q1019 NOSIG RMK BLU
TAF LHSN 300815Z 3009/3018 04010KT 9999 SCT040 
     BECMG 3009/3012 CAVOK